Overseas Houston — WWAA — position and weather

sailwx.info

Track history (hours):
 
Tides and Currents Weather Stations Pressure Air Temp Water Temp Dewpoint Dewpoint Depression Visibility Wind Speed Wind Dir Waves Ship Positions

Overseas Houston

Owner: ASC Leasing I, Inc., Philadelphia, PA. More information available from US FCC via Universal Licensing System and Coast Guard Vessel Documentation Center.

Last reported at 2016-Apr-29 03:33 UTC. Time now 2016-Apr-29 04:06 UTC.
Position N 27°55' W 082°27'.

Type: Tanker. MMSI: 367109000.

Date/timePositionNaut miles runAvg speedWind from/ knotsBaromVisibWave heightAir tempDewpointWater temp
2016-Apr-29 03:33N 27°55' W 082°27'0 0.0
2016-Apr-29 02:33N 27°55' W 082°27'0 0.0
2016-Apr-29 01:33N 27°55' W 082°27'0 0.0
2016-Apr-29 00:33N 27°55' W 082°27'0 0.0
2016-Apr-28 23:33N 27°55' W 082°27'0 0.0
2016-Apr-28 22:33N 27°55' W 082°27'0 0.0
2016-Apr-28 21:33N 27°55' W 082°27'0 0.0
2016-Apr-28 20:33N 27°55' W 082°27'0 0.0
2016-Apr-28 19:33N 27°55' W 082°27'0 0.0
2016-Apr-28 18:33N 27°55' W 082°27'0 0.0
2016-Apr-28 17:33N 27°55' W 082°27'0 0.0
2016-Apr-28 16:30N 27°55' W 082°27'0 0.0
2016-Apr-28 15:33N 27°55' W 082°27'0 0.0
2016-Apr-28 14:33N 27°55' W 082°27'6 5.6
2016-Apr-28 13:33N 27°50' W 082°27'1111.5
2016-Apr-28 12:33N 27°41' W 082°35'1211.9
2016-Apr-28 11:32N 27°37' W 082°48'1511.4
2016-Apr-28 10:12N 27°36' W 083°05'38812.7
2016-Apr-27 03:33N 29°47' W 090°01'1010.1
2016-Apr-27 02:33N 29°55' W 089°55'1111.4
2016-Apr-27 01:34N 29°55' W 090°08'  
2016-Apr-24 08:31N 29°58' W 090°15'6 6.7
2016-Apr-24 07:33N 29°56' W 090°08'7 6.7
2016-Apr-24 06:33N 29°57' W 090°01'6 6.3
2016-Apr-24 05:33N 29°52' W 089°56'1 0.8
2016-Apr-24 04:33N 29°52' W 089°56'0 0.0
2016-Apr-24 03:33N 29°52' W 089°56'0 0.0
2016-Apr-24 02:30N 29°52' W 089°56'0 0.0
2016-Apr-24 01:33N 29°52' W 089°57'0 0.0
2016-Apr-24 00:29N 29°52' W 089°56'0 0.0
2016-Apr-23 23:29N 29°52' W 089°56'0 0.0
2016-Apr-23 22:29N 29°52' W 089°56'0 0.0
2016-Apr-23 21:32N 29°52' W 089°56'1 0.7
2016-Apr-23 20:33N 29°53' W 089°57'8 8.4
2016-Apr-23 19:34N 29°45' W 090°01'40012.3
2016-Apr-22 11:08N 27°36' W 082°49'814.8
2016-Apr-22 10:33N 27°37' W 082°40'1211.8
2016-Apr-22 09:33N 27°47' W 082°32'5 4.5
2016-Apr-22 08:32N 27°52' W 082°33'0 0.0
2016-Apr-22 07:32N 27°52' W 082°33'0 0.0
2016-Apr-22 06:32N 27°52' W 082°33'0 0.0
2016-Apr-22 05:32N 27°52' W 082°33'0 0.0
2016-Apr-22 04:32N 27°52' W 082°33'0 0.0
2016-Apr-22 03:32N 27°52' W 082°33'0 0.0
2016-Apr-22 02:32N 27°52' W 082°33'0 0.0
2016-Apr-22 01:32N 27°52' W 082°33'0 0.0
2016-Apr-22 00:29N 27°52' W 082°33'0 0.0
2016-Apr-21 23:32N 27°52' W 082°33'0 0.0
2016-Apr-21 22:32N 27°52' W 082°33'0 0.0
2016-Apr-21 21:32N 27°52' W 082°33'0 0.0
2016-Apr-21 20:31N 27°52' W 082°33'0 0.0
2016-Apr-21 19:31N 27°52' W 082°33'0 0.0
2016-Apr-21 18:31N 27°52' W 082°33'0 0.0
2016-Apr-21 17:31N 27°52' W 082°33'0 0.0
2016-Apr-21 16:31N 27°52' W 082°33'0 0.0
2016-Apr-21 15:31N 27°52' W 082°33'0 0.0
2016-Apr-21 14:31N 27°52' W 082°33'1 0.8
2016-Apr-21 13:33N 27°51' W 082°34'6 6.2
2016-Apr-21 12:33N 27°49' W 082°27'6 5.7
2016-Apr-21 11:31N 27°55' W 082°27'0 0.0
2016-Apr-21 10:31N 27°55' W 082°27'0 0.0
2016-Apr-21 09:31N 27°55' W 082°27'0 0.0
2016-Apr-21 08:31N 27°55' W 082°27'0 0.0
2016-Apr-21 07:31N 27°55' W 082°27'0 0.0
2016-Apr-21 06:31N 27°55' W 082°27'0 0.0
2016-Apr-21 05:31N 27°55' W 082°27'0 0.0
2016-Apr-21 04:31N 27°55' W 082°27'0 0.0
2016-Apr-21 03:31N 27°55' W 082°27'0 0.0
2016-Apr-21 02:31N 27°55' W 082°27'0 0.0
2016-Apr-21 01:31N 27°55' W 082°27'0 0.0
2016-Apr-21 00:31N 27°55' W 082°27'0 0.0
2016-Apr-20 23:31N 27°55' W 082°27'0 0.0
2016-Apr-20 22:31N 27°55' W 082°27'0 0.0
2016-Apr-20 21:31N 27°55' W 082°27'0 0.0
2016-Apr-20 20:31N 27°55' W 082°27'0 0.0
2016-Apr-20 19:31N 27°55' W 082°27'0 0.0
2016-Apr-20 18:31N 27°55' W 082°27'0 0.0
2016-Apr-20 17:31N 27°55' W 082°27'0 0.0
2016-Apr-20 16:31N 27°55' W 082°27'0 0.0
2016-Apr-20 15:31N 27°55' W 082°27'0 0.0
2016-Apr-20 14:31N 27°55' W 082°27'0 0.0
2016-Apr-20 13:28N 27°55' W 082°27'0 0.0
2016-Apr-20 12:31N 27°55' W 082°27'  
Track history (hours):
 
Tides and Currents Weather Stations Pressure Air Temp Water Temp Dewpoint Dewpoint Depression Visibility Wind Speed Wind Dir Waves Ship Positions

Overseas Houston

Owner: ASC Leasing I, Inc., Philadelphia, PA. More information available from US FCC via Universal Licensing System and Coast Guard Vessel Documentation Center.

Last reported at 2016-Apr-29 03:33 UTC. Time now 2016-Apr-29 04:06 UTC.
Position N 27°55' W 082°27'.

Type: Tanker. MMSI: 367109000.

Date/timePositionNaut miles runAvg speedWind from/ knotsBaromVisibWave heightAir tempDewpointWater temp
2016-Apr-29 03:33N 27°55' W 082°27'0 0.0
2016-Apr-29 02:33N 27°55' W 082°27'0 0.0
2016-Apr-29 01:33N 27°55' W 082°27'0 0.0
2016-Apr-29 00:33N 27°55' W 082°27'0 0.0
2016-Apr-28 23:33N 27°55' W 082°27'0 0.0
2016-Apr-28 22:33N 27°55' W 082°27'0 0.0
2016-Apr-28 21:33N 27°55' W 082°27'0 0.0
2016-Apr-28 20:33N 27°55' W 082°27'0 0.0
2016-Apr-28 19:33N 27°55' W 082°27'0 0.0
2016-Apr-28 18:33N 27°55' W 082°27'0 0.0
2016-Apr-28 17:33N 27°55' W 082°27'0 0.0
2016-Apr-28 16:30N 27°55' W 082°27'0 0.0
2016-Apr-28 15:33N 27°55' W 082°27'0 0.0
2016-Apr-28 14:33N 27°55' W 082°27'6 5.6
2016-Apr-28 13:33N 27°50' W 082°27'1111.5
2016-Apr-28 12:33N 27°41' W 082°35'1211.9
2016-Apr-28 11:32N 27°37' W 082°48'1511.4
2016-Apr-28 10:12N 27°36' W 083°05'38812.7
2016-Apr-27 03:33N 29°47' W 090°01'1010.1
2016-Apr-27 02:33N 29°55' W 089°55'1111.4
2016-Apr-27 01:34N 29°55' W 090°08'  
2016-Apr-24 08:31N 29°58' W 090°15'6 6.7
2016-Apr-24 07:33N 29°56' W 090°08'7 6.7
2016-Apr-24 06:33N 29°57' W 090°01'6 6.3
2016-Apr-24 05:33N 29°52' W 089°56'1 0.8
2016-Apr-24 04:33N 29°52' W 089°56'0 0.0
2016-Apr-24 03:33N 29°52' W 089°56'0 0.0
2016-Apr-24 02:30N 29°52' W 089°56'0 0.0
2016-Apr-24 01:33N 29°52' W 089°57'0 0.0
2016-Apr-24 00:29N 29°52' W 089°56'0 0.0
2016-Apr-23 23:29N 29°52' W 089°56'0 0.0
2016-Apr-23 22:29N 29°52' W 089°56'0 0.0
2016-Apr-23 21:32N 29°52' W 089°56'1 0.7
2016-Apr-23 20:33N 29°53' W 089°57'8 8.4
2016-Apr-23 19:34N 29°45' W 090°01'40012.3
2016-Apr-22 11:08N 27°36' W 082°49'814.8
2016-Apr-22 10:33N 27°37' W 082°40'1211.8
2016-Apr-22 09:33N 27°47' W 082°32'5 4.5
2016-Apr-22 08:32N 27°52' W 082°33'0 0.0
2016-Apr-22 07:32N 27°52' W 082°33'0 0.0
2016-Apr-22 06:32N 27°52' W 082°33'0 0.0
2016-Apr-22 05:32N 27°52' W 082°33'0 0.0
2016-Apr-22 04:32N 27°52' W 082°33'0 0.0
2016-Apr-22 03:32N 27°52' W 082°33'0 0.0
2016-Apr-22 02:32N 27°52' W 082°33'0 0.0
2016-Apr-22 01:32N 27°52' W 082°33'0 0.0
2016-Apr-22 00:29N 27°52' W 082°33'0 0.0
2016-Apr-21 23:32N 27°52' W 082°33'0 0.0
2016-Apr-21 22:32N 27°52' W 082°33'0 0.0
2016-Apr-21 21:32N 27°52' W 082°33'0 0.0
2016-Apr-21 20:31N 27°52' W 082°33'0 0.0
2016-Apr-21 19:31N 27°52' W 082°33'0 0.0
2016-Apr-21 18:31N 27°52' W 082°33'0 0.0
2016-Apr-21 17:31N 27°52' W 082°33'0 0.0
2016-Apr-21 16:31N 27°52' W 082°33'0 0.0
2016-Apr-21 15:31N 27°52' W 082°33'0 0.0
2016-Apr-21 14:31N 27°52' W 082°33'1 0.8
2016-Apr-21 13:33N 27°51' W 082°34'6 6.2
2016-Apr-21 12:33N 27°49' W 082°27'6 5.7
2016-Apr-21 11:31N 27°55' W 082°27'0 0.0
2016-Apr-21 10:31N 27°55' W 082°27'0 0.0
2016-Apr-21 09:31N 27°55' W 082°27'0 0.0
2016-Apr-21 08:31N 27°55' W 082°27'0 0.0
2016-Apr-21 07:31N 27°55' W 082°27'0 0.0
2016-Apr-21 06:31N 27°55' W 082°27'0 0.0
2016-Apr-21 05:31N 27°55' W 082°27'0 0.0
2016-Apr-21 04:31N 27°55' W 082°27'0 0.0
2016-Apr-21 03:31N 27°55' W 082°27'0 0.0
2016-Apr-21 02:31N 27°55' W 082°27'0 0.0
2016-Apr-21 01:31N 27°55' W 082°27'0 0.0
2016-Apr-21 00:31N 27°55' W 082°27'0 0.0
2016-Apr-20 23:31N 27°55' W 082°27'0 0.0
2016-Apr-20 22:31N 27°55' W 082°27'0 0.0
2016-Apr-20 21:31N 27°55' W 082°27'0 0.0
2016-Apr-20 20:31N 27°55' W 082°27'0 0.0
2016-Apr-20 19:31N 27°55' W 082°27'0 0.0
2016-Apr-20 18:31N 27°55' W 082°27'0 0.0
2016-Apr-20 17:31N 27°55' W 082°27'0 0.0
2016-Apr-20 16:31N 27°55' W 082°27'0 0.0
2016-Apr-20 15:31N 27°55' W 082°27'0 0.0
2016-Apr-20 14:31N 27°55' W 082°27'0 0.0
2016-Apr-20 13:28N 27°55' W 082°27'0 0.0
2016-Apr-20 12:31N 27°55' W 082°27'  

Dump ship's entire track history